createdAt,value
2019-05-11T00:00:55.381Z,17.43
2019-05-11T00:03:24.042Z,18.60
2019-05-11T00:05:52.927Z,18.60
2019-05-11T00:08:21.833Z,17.97
2019-05-11T00:10:50.831Z,17.50
2019-05-11T00:13:19.818Z,16.83
2019-05-11T00:15:48.468Z,16.90
2019-05-11T00:18:17.493Z,16.90
2019-05-11T00:20:46.346Z,17.50
2019-05-11T00:23:15.327Z,16.33
2019-05-11T00:25:44.251Z,15.83
2019-05-11T00:28:12.934Z,15.63
2019-05-11T00:30:41.726Z,16.80
2019-05-11T00:33:10.511Z,17.03
2019-05-11T00:35:39.185Z,16.70
2019-05-11T00:38:08.009Z,17.90
2019-05-11T00:40:36.867Z,17.93
2019-05-11T00:43:05.763Z,16.23
2019-05-11T00:45:34.527Z,17.57
2019-05-11T00:48:03.316Z,15.27
2019-05-11T00:50:39.114Z,16.03
2019-05-11T00:53:02.524Z,15.50
2019-05-11T00:55:31.416Z,14.50
2019-05-11T00:58:00.100Z,14.30
2019-05-11T01:00:28.784Z,14.60
2019-05-11T01:02:57.611Z,13.03
2019-05-11T01:05:26.455Z,13.07
2019-05-11T01:07:55.251Z,13.40
2019-05-11T01:10:40.061Z,13.07
2019-05-11T01:12:54.854Z,12.80
2019-05-11T01:15:23.955Z,12.93
2019-05-11T01:17:52.955Z,13.73
2019-05-11T01:20:21.833Z,12.67
2019-05-11T01:22:50.767Z,12.93
2019-05-11T01:25:19.816Z,13.13
2019-05-11T01:27:48.700Z,12.13
2019-05-11T01:30:17.709Z,11.57
2019-05-11T01:32:46.478Z,11.97
2019-05-11T01:35:15.480Z,12.20
2019-05-11T01:37:44.204Z,11.50
2019-05-11T01:40:13.647Z,12.40
2019-05-11T01:42:42.619Z,10.77
2019-05-11T01:45:11.691Z,10.93
2019-05-11T01:47:40.789Z,11.50
2019-05-11T01:50:09.780Z,11.60
2019-05-11T01:52:38.747Z,10.97
2019-05-11T01:55:08.314Z,10.40
2019-05-11T01:57:37.022Z,10.80
2019-05-11T02:00:10.606Z,9.90
2019-05-11T02:02:39.413Z,11.57
2019-05-11T02:05:28.570Z,10.77
2019-05-11T02:07:58.864Z,10.80
2019-05-11T02:10:28.108Z,10.53
2019-05-11T02:12:57.173Z,10.13
2019-05-11T02:15:26.014Z,10.57
2019-05-11T02:17:54.935Z,11.33
2019-05-11T02:20:23.772Z,10.03
2019-05-11T02:22:52.837Z,9.87
2019-05-11T02:25:21.721Z,10.13
2019-05-11T02:27:50.691Z,10.70
2019-05-11T02:30:19.933Z,10.87
2019-05-11T02:32:49.031Z,10.47
2019-05-11T02:35:17.995Z,10.03
2019-05-11T02:37:46.975Z,9.90
2019-05-11T02:40:16.946Z,9.77
2019-05-11T02:42:45.804Z,9.33
2019-05-11T02:45:15.993Z,10.17
2019-05-11T02:47:44.782Z,10.17
2019-05-11T02:50:13.998Z,10.03
2019-05-11T02:52:42.849Z,11.10
2019-05-11T02:55:12.155Z,10.90
2019-05-11T02:57:40.823Z,10.60
2019-05-11T03:00:10.263Z,11.37
2019-05-11T03:02:39.127Z,10.33
2019-05-11T03:05:08.100Z,10.00
2019-05-11T03:07:37.022Z,11.07
2019-05-11T03:10:06.801Z,10.23
2019-05-11T03:12:35.530Z,11.17
2019-05-11T03:15:06.854Z,12.23
2019-05-11T03:17:35.533Z,12.20
2019-05-11T03:20:05.148Z,10.93
2019-05-11T03:22:33.921Z,12.37
2019-05-11T03:25:02.805Z,11.60
2019-05-11T03:27:31.625Z,11.80
2019-05-11T03:30:01.629Z,10.50
2019-05-11T03:32:30.722Z,9.63
2019-05-11T03:34:59.518Z,10.63
2019-05-11T03:37:28.470Z,9.93
2019-05-11T03:39:57.189Z,10.27
2019-05-11T03:42:25.961Z,12.93
2019-05-11T03:44:54.862Z,11.83
2019-05-11T03:47:23.725Z,12.07
2019-05-11T03:49:52.491Z,11.90
2019-05-11T03:52:21.421Z,13.37
2019-05-11T03:54:50.250Z,11.63
2019-05-11T03:57:18.958Z,11.40
2019-05-11T03:59:47.720Z,10.80
2019-05-11T04:02:16.443Z,11.10
2019-05-11T04:04:45.265Z,10.90
2019-05-11T04:07:14.330Z,10.93
2019-05-11T04:09:43.122Z,10.60
2019-05-11T04:12:11.882Z,10.83
2019-05-11T04:14:40.793Z,10.77
2019-05-11T04:17:09.718Z,10.53
2019-05-11T04:19:38.486Z,11.20
2019-05-11T04:22:07.468Z,10.77
2019-05-11T04:24:36.244Z,10.87
2019-05-11T04:27:05.156Z,10.83
2019-05-11T04:29:34.010Z,11.00
2019-05-11T04:32:02.958Z,10.50
2019-05-11T04:34:31.891Z,10.50
2019-05-11T04:37:00.821Z,10.23
2019-05-11T04:39:29.630Z,11.27
2019-05-11T04:41:58.513Z,10.33
2019-05-11T04:44:27.466Z,10.47
2019-05-11T04:46:56.114Z,10.37
2019-05-11T04:49:24.798Z,11.13
2019-05-11T04:51:53.608Z,10.10
2019-05-11T04:54:22.500Z,10.23
2019-05-11T04:56:51.169Z,9.90
2019-05-11T04:59:19.959Z,10.03
2019-05-11T05:01:48.884Z,9.60
2019-05-11T05:04:17.839Z,10.20
2019-05-11T05:06:59.034Z,9.67
2019-05-11T05:09:17.269Z,10.73
2019-05-11T05:11:46.238Z,11.63
2019-05-11T05:14:15.125Z,13.87
2019-05-11T05:16:44.027Z,13.67
2019-05-11T05:19:12.714Z,13.97
2019-05-11T05:21:41.745Z,14.40
2019-05-11T05:24:10.460Z,15.90
2019-05-11T05:26:39.149Z,15.43
2019-05-11T05:29:08.227Z,14.83
2019-05-11T05:31:37.223Z,14.70
2019-05-11T05:34:06.139Z,13.83
2019-05-11T05:36:35.213Z,13.13
2019-05-11T05:39:08.786Z,12.20
2019-05-11T05:41:36.790Z,11.60
2019-05-11T05:44:05.676Z,11.60
2019-05-11T05:46:34.799Z,10.03
2019-05-11T05:49:03.551Z,9.57
2019-05-11T05:51:32.305Z,10.17
2019-05-11T05:54:01.008Z,9.50
2019-05-11T05:56:29.910Z,9.90
2019-05-11T05:58:58.814Z,9.77
2019-05-11T06:01:27.819Z,8.97
2019-05-11T06:03:56.692Z,9.60
2019-05-11T06:06:25.468Z,9.67
2019-05-11T06:08:54.145Z,10.33
2019-05-11T06:11:22.823Z,10.87
2019-05-11T06:13:51.823Z,9.83
2019-05-11T06:16:20.618Z,9.57
2019-05-11T06:18:49.403Z,9.60
2019-05-11T06:21:18.374Z,10.03
2019-05-11T06:23:47.379Z,10.30
2019-05-11T06:26:16.483Z,10.73
2019-05-11T06:28:45.473Z,9.93
2019-05-11T06:31:14.678Z,9.60
2019-05-11T06:33:43.677Z,9.90
2019-05-11T06:36:12.642Z,10.03
2019-05-11T06:38:41.463Z,9.73
2019-05-11T06:41:10.442Z,10.17
2019-05-11T06:43:39.465Z,9.87
2019-05-11T06:46:08.280Z,9.90
2019-05-11T06:48:37.264Z,9.83
2019-05-11T06:51:06.392Z,10.77
2019-05-11T06:53:35.271Z,10.73
2019-05-11T06:56:04.133Z,10.00
2019-05-11T06:58:33.065Z,10.53
2019-05-11T07:01:01.930Z,10.47
2019-05-11T07:03:30.746Z,10.73
2019-05-11T07:05:59.642Z,10.00
2019-05-11T07:08:28.627Z,9.90
2019-05-11T07:10:57.691Z,10.67
2019-05-11T07:13:27.015Z,11.73
2019-05-11T07:15:56.371Z,10.53
2019-05-11T07:18:25.162Z,10.37
2019-05-11T07:20:54.066Z,11.00
2019-05-11T07:23:22.879Z,9.63
2019-05-11T07:25:51.957Z,9.73
2019-05-11T07:28:20.888Z,8.70
2019-05-11T07:30:49.946Z,8.87
2019-05-11T07:33:18.715Z,7.73
2019-05-11T07:35:47.904Z,9.70
2019-05-11T07:38:18.329Z,8.93
2019-05-11T07:40:47.705Z,9.27
2019-05-11T07:43:18.798Z,7.93
2019-05-11T07:45:47.967Z,7.23
2019-05-11T07:48:18.670Z,6.97
2019-05-11T07:50:48.006Z,7.43
2019-05-11T07:53:18.602Z,5.20
2019-05-11T07:55:48.485Z,5.70
2019-05-11T07:58:20.238Z,6.60
2019-05-11T08:00:48.870Z,6.87
2019-05-11T08:03:18.163Z,5.67
2019-05-11T08:05:47.849Z,3.97
2019-05-11T08:08:18.074Z,5.97
2019-05-11T08:10:48.308Z,4.80
2019-05-11T08:13:17.892Z,4.70
2019-05-11T08:15:48.837Z,4.33
2019-05-11T08:18:18.895Z,4.80
2019-05-11T08:20:48.174Z,5.07
2019-05-11T08:23:18.086Z,5.47
2019-05-11T08:25:48.681Z,5.27
2019-05-11T08:28:18.366Z,5.50
2019-05-11T08:30:48.599Z,5.63
2019-05-11T08:33:18.299Z,5.87
2019-05-11T08:35:48.083Z,5.73
2019-05-11T08:38:18.225Z,5.57
2019-05-11T08:40:48.647Z,5.93
2019-05-11T08:43:18.062Z,6.63
2019-05-11T08:45:48.500Z,8.17
2019-05-11T08:48:18.716Z,8.07
2019-05-11T08:50:48.885Z,8.67
2019-05-11T08:53:18.104Z,9.37
2019-05-11T08:55:48.513Z,8.70
2019-05-11T08:58:19.489Z,9.47
2019-05-11T09:00:48.277Z,9.37
2019-05-11T09:03:17.878Z,8.27
2019-05-11T09:05:48.540Z,6.67
2019-05-11T09:08:18.768Z,6.00
2019-05-11T09:10:48.986Z,7.97
2019-05-11T09:13:18.674Z,7.87
2019-05-11T09:15:48.371Z,7.53
2019-05-11T09:18:18.804Z,8.13
2019-05-11T09:20:48.681Z,8.20
2019-05-11T09:23:32.961Z,7.10
2019-05-11T09:25:48.397Z,6.67
2019-05-11T09:28:17.978Z,6.70
2019-05-11T09:30:48.328Z,8.27
2019-05-11T09:33:20.491Z,7.80
2019-05-11T09:35:53.049Z,8.50
2019-05-11T09:38:18.624Z,7.63
2019-05-11T09:40:48.056Z,7.93
2019-05-11T09:43:17.841Z,6.53
2019-05-11T09:45:49.318Z,7.03
2019-05-11T09:48:18.016Z,7.10
2019-05-11T09:50:48.137Z,7.60
2019-05-11T09:53:17.733Z,6.33
2019-05-11T09:55:48.147Z,8.43
2019-05-11T09:58:19.631Z,7.80
2019-05-11T10:00:48.152Z,8.93
2019-05-11T10:03:18.640Z,7.80
2019-05-11T10:05:48.710Z,8.97
2019-05-11T10:08:18.298Z,8.43
2019-05-11T10:10:48.788Z,8.20
2019-05-11T10:13:18.618Z,9.57
2019-05-11T10:16:00.924Z,9.13
2019-05-11T10:18:18.690Z,9.00
2019-05-11T10:20:48.180Z,7.30
2019-05-11T10:23:18.610Z,6.57
2019-05-11T10:25:48.136Z,6.13
2019-05-11T10:28:17.928Z,6.70
2019-05-11T10:30:48.723Z,7.70
2019-05-11T10:33:18.900Z,9.00
2019-05-11T10:35:48.351Z,8.27
2019-05-11T10:38:18.116Z,9.20
2019-05-11T10:40:48.034Z,7.93
2019-05-11T10:43:18.370Z,8.50
2019-05-11T10:45:48.368Z,7.23
2019-05-11T10:48:17.847Z,9.03
2019-05-11T10:50:48.403Z,7.37
2019-05-11T10:53:18.493Z,7.73
2019-05-11T10:55:48.015Z,5.60
2019-05-11T10:58:18.363Z,6.53
2019-05-11T11:00:48.044Z,7.97
2019-05-11T11:03:17.874Z,6.33
2019-05-11T11:05:48.759Z,5.13
2019-05-11T11:08:18.535Z,5.20
2019-05-11T11:10:48.403Z,4.67
2019-05-11T11:13:18.786Z,4.80
2019-05-11T11:15:48.520Z,5.20
2019-05-11T11:18:18.883Z,3.90
2019-05-11T11:20:48.868Z,3.50
2019-05-11T11:23:18.142Z,3.70
2019-05-11T11:25:48.168Z,4.30
2019-05-11T11:28:17.583Z,5.27
2019-05-11T11:30:48.106Z,3.90
2019-05-11T11:33:18.370Z,4.80
2019-05-11T11:35:47.756Z,3.80
2019-05-11T11:38:18.158Z,3.67
2019-05-11T11:40:49.354Z,3.07
2019-05-11T11:43:18.218Z,4.70
2019-05-11T11:45:48.409Z,3.20
2019-05-11T11:48:18.926Z,2.63
2019-05-11T11:50:48.151Z,2.40
2019-05-11T11:53:18.825Z,2.73
2019-05-11T11:55:48.164Z,7.30
2019-05-11T11:58:23.129Z,5.33
2019-05-11T12:00:49.384Z,3.67
2019-05-11T12:03:18.606Z,4.03
2019-05-11T12:05:47.843Z,42.63
2019-05-11T12:08:18.887Z,8.17
2019-05-11T12:10:48.616Z,3.93
2019-05-11T12:13:18.719Z,2.53
2019-05-11T12:15:48.233Z,12.47
2019-05-11T12:18:18.511Z,9.30
2019-05-11T12:20:48.076Z,9.27
2019-05-11T12:23:17.969Z,5.67
2019-05-11T12:25:48.706Z,7.40
2019-05-11T12:28:18.376Z,27.87
2019-05-11T12:30:48.145Z,36.43
2019-05-11T12:33:18.736Z,20.73
2019-05-11T12:35:48.221Z,34.63
2019-05-11T12:38:18.314Z,7.97
2019-05-11T12:40:47.825Z,2.20
2019-05-11T12:43:18.589Z,2.30
2019-05-11T12:45:48.149Z,1.90
2019-05-11T12:48:18.145Z,31.47
2019-05-11T12:50:48.423Z,34.80
2019-05-11T12:53:18.605Z,25.10
2019-05-11T12:55:48.359Z,9.27
2019-05-11T12:58:18.159Z,5.40
2019-05-11T13:00:48.003Z,5.40
2019-05-11T13:03:18.652Z,5.63
2019-05-11T13:05:48.416Z,2.20
2019-05-11T13:08:18.434Z,1.57
2019-05-11T13:10:48.043Z,1.40
2019-05-11T13:13:18.239Z,1.80
2019-05-11T13:15:47.971Z,9.27
2019-05-11T13:18:18.593Z,8.70
2019-05-11T13:20:48.262Z,2.93
2019-05-11T13:23:18.589Z,1.50
2019-05-11T13:25:48.095Z,1.47
2019-05-11T13:28:17.948Z,7.47
2019-05-11T13:30:48.852Z,5.43
2019-05-11T13:33:19.100Z,4.37
2019-05-11T13:35:48.403Z,3.33
2019-05-11T13:38:17.865Z,4.60
2019-05-11T13:40:48.764Z,2.60
2019-05-11T13:43:18.793Z,1.60
2019-05-11T13:45:47.980Z,1.50
2019-05-11T13:48:17.711Z,4.37
2019-05-11T13:50:47.952Z,3.03
2019-05-11T13:53:18.416Z,1.70
2019-05-11T13:55:48.107Z,2.40
2019-05-11T13:58:19.800Z,2.47
2019-05-11T14:00:48.103Z,10.33
2019-05-11T14:03:18.395Z,6.20
2019-05-11T14:05:48.358Z,3.87
2019-05-11T14:08:18.621Z,3.97
2019-05-11T14:10:48.801Z,2.40
2019-05-11T14:13:18.292Z,1.80
2019-05-11T14:15:48.103Z,1.87
2019-05-11T14:18:18.131Z,2.90
2019-05-11T14:20:48.284Z,4.67
2019-05-11T14:23:18.254Z,4.20
2019-05-11T14:25:48.656Z,2.90
2019-05-11T14:28:18.095Z,4.10
2019-05-11T14:30:48.714Z,2.73
2019-05-11T14:33:18.169Z,2.50
2019-05-11T14:35:48.950Z,2.27
2019-05-11T14:38:18.803Z,3.03
2019-05-11T14:40:48.227Z,4.47
2019-05-11T14:43:18.827Z,14.20
2019-05-11T14:45:48.646Z,15.37
2019-05-11T14:48:24.179Z,16.97
2019-05-11T14:50:48.973Z,5.53
2019-05-11T14:53:18.064Z,3.90
2019-05-11T14:55:48.802Z,45.43
2019-05-11T14:58:19.686Z,30.97
2019-05-11T15:00:48.686Z,29.63
2019-05-11T15:03:18.283Z,28.53
2019-05-11T15:05:47.812Z,29.47
2019-05-11T15:08:18.004Z,14.63
2019-05-11T15:10:48.800Z,12.00
2019-05-11T15:13:18.611Z,8.77
2019-05-11T15:15:48.762Z,5.47
2019-05-11T15:18:17.922Z,2.33
2019-05-11T15:20:47.975Z,3.60
2019-05-11T15:23:18.039Z,4.83
2019-05-11T15:25:48.752Z,8.27
2019-05-11T15:28:18.200Z,7.53
2019-05-11T15:30:48.374Z,8.30
2019-05-11T15:33:18.369Z,16.70
2019-05-11T15:35:47.973Z,12.17
2019-05-11T15:38:17.891Z,6.83
2019-05-11T15:40:48.753Z,2.80
2019-05-11T15:43:17.951Z,2.57
2019-05-11T15:45:48.704Z,1.80
2019-05-11T15:48:18.657Z,1.60
2019-05-11T15:50:48.571Z,2.20
2019-05-11T15:53:17.936Z,2.30
2019-05-11T15:55:46.969Z,2.30
2019-05-11T15:58:21.504Z,2.50
2019-05-11T16:00:48.345Z,2.90
2019-05-11T16:03:18.628Z,9.60
2019-05-11T16:05:47.904Z,15.53
2019-05-11T16:08:18.847Z,30.50
2019-05-11T16:10:48.867Z,7.93
2019-05-11T16:13:18.240Z,62.73
2019-05-11T16:15:47.807Z,33.63
2019-05-11T16:18:18.941Z,20.30
2019-05-11T16:20:48.029Z,17.40
2019-05-11T16:23:20.014Z,46.33
2019-05-11T16:25:48.926Z,56.47
2019-05-11T16:28:19.212Z,68.13
2019-05-11T16:30:48.403Z,17.13
2019-05-11T16:33:17.982Z,5.73
2019-05-11T16:35:49.019Z,5.60
2019-05-11T16:38:18.839Z,5.40
2019-05-11T16:40:48.168Z,4.83
2019-05-11T16:43:19.004Z,4.93
2019-05-11T16:45:48.875Z,5.23
2019-05-11T16:48:18.490Z,5.77
2019-05-11T16:50:47.603Z,5.37
2019-05-11T16:53:18.121Z,5.40
2019-05-11T16:55:48.603Z,6.17
2019-05-11T16:58:19.810Z,6.17
2019-05-11T17:00:48.975Z,5.83
2019-05-11T17:03:18.196Z,5.87
2019-05-11T17:05:48.433Z,6.33
2019-05-11T17:08:18.708Z,6.17
2019-05-11T17:10:59.080Z,5.33
2019-05-11T17:13:28.485Z,5.77
2019-05-11T17:15:58.337Z,6.13
2019-05-11T17:18:28.345Z,6.40
2019-05-11T17:20:58.408Z,6.20
2019-05-11T17:23:30.665Z,6.63
2019-05-11T17:25:58.599Z,6.77
2019-05-11T17:28:27.414Z,6.13
2019-05-11T17:30:58.623Z,6.00
2019-05-11T17:33:26.657Z,6.43
2019-05-11T17:35:55.624Z,8.10
2019-05-11T17:38:24.548Z,8.67
2019-05-11T17:40:53.404Z,7.97
2019-05-11T17:43:22.408Z,8.40
2019-05-11T17:45:51.205Z,8.40
2019-05-11T17:48:20.117Z,9.10
2019-05-11T17:50:50.254Z,9.20
2019-05-11T17:53:19.152Z,8.83
2019-05-11T17:55:48.814Z,9.27
2019-05-11T17:58:18.479Z,9.20
2019-05-11T18:00:48.031Z,8.13
2019-05-11T18:03:17.097Z,9.27
2019-05-11T18:05:48.388Z,8.70
2019-05-11T18:08:16.100Z,10.43
2019-05-11T18:10:47.806Z,10.63
2019-05-11T18:13:16.151Z,11.77
2019-05-11T18:15:44.927Z,11.27
2019-05-11T18:18:13.820Z,12.47
2019-05-11T18:20:42.714Z,12.20
2019-05-11T18:23:11.602Z,11.20
2019-05-11T18:25:40.501Z,10.80
2019-05-11T18:28:09.257Z,12.07
2019-05-11T18:30:38.802Z,10.87
2019-05-11T18:33:08.457Z,16.90
2019-05-11T18:35:37.372Z,20.10
2019-05-11T18:38:08.351Z,26.97
2019-05-11T18:40:38.187Z,25.30
2019-05-11T18:43:08.602Z,17.27
2019-05-11T18:45:38.247Z,13.83
2019-05-11T18:48:08.085Z,11.07
2019-05-11T18:50:38.398Z,11.57
2019-05-11T18:53:09.253Z,11.00
2019-05-11T18:55:38.200Z,10.47
2019-05-11T18:58:07.014Z,11.17
2019-05-11T19:00:38.041Z,12.30
2019-05-11T19:03:08.729Z,13.13
2019-05-11T19:05:38.598Z,12.20
2019-05-11T19:08:07.209Z,11.00
2019-05-11T19:10:38.209Z,10.80
2019-05-11T19:13:06.555Z,11.90
2019-05-11T19:15:35.359Z,11.57
2019-05-11T19:18:04.343Z,11.33
2019-05-11T19:20:44.534Z,12.27
2019-05-11T19:23:03.663Z,13.33
2019-05-11T19:25:32.668Z,12.93
2019-05-11T19:28:01.443Z,14.60
2019-05-11T19:30:30.331Z,14.47
2019-05-11T19:32:59.208Z,16.07
2019-05-11T19:35:28.642Z,14.97
2019-05-11T19:37:57.910Z,13.53
2019-05-11T19:40:26.705Z,13.63
2019-05-11T19:42:59.238Z,13.77
2019-05-11T19:45:29.336Z,14.50
2019-05-11T19:47:58.887Z,14.93
2019-05-11T19:50:27.787Z,17.30
2019-05-11T19:52:57.993Z,16.67
2019-05-11T19:55:28.507Z,16.90
2019-05-11T19:57:57.909Z,16.13
2019-05-11T20:00:26.621Z,15.20
2019-05-11T20:02:55.598Z,14.93
2019-05-11T20:05:24.488Z,14.33
2019-05-11T20:07:53.379Z,13.97
2019-05-11T20:10:22.363Z,13.80
2019-05-11T20:12:51.052Z,14.07
2019-05-11T20:15:19.782Z,14.77
2019-05-11T20:17:49.083Z,14.13
2019-05-11T20:20:18.575Z,14.10
2019-05-11T20:22:48.496Z,14.83
2019-05-11T20:25:18.830Z,14.60
2019-05-11T20:27:48.573Z,17.70
2019-05-11T20:30:18.805Z,17.93
2019-05-11T20:32:49.080Z,19.27
2019-05-11T20:35:18.272Z,22.67
2019-05-11T20:37:47.838Z,18.70
2019-05-11T20:40:18.323Z,19.27
2019-05-11T20:42:48.516Z,20.93
2019-05-11T20:45:18.537Z,23.73
2019-05-11T20:47:48.761Z,18.23
2019-05-11T20:50:18.694Z,23.97
2019-05-11T20:52:48.371Z,22.30
2019-05-11T20:55:18.210Z,26.33
2019-05-11T20:57:48.452Z,22.70
2019-05-11T21:00:18.639Z,20.60
2019-05-11T21:02:48.790Z,23.27
2019-05-11T21:05:18.456Z,30.27
2019-05-11T21:07:47.597Z,31.80
2019-05-11T21:10:16.777Z,32.20
2019-05-11T21:12:45.478Z,35.60
2019-05-11T21:15:14.572Z,31.67
2019-05-11T21:17:43.343Z,25.10
2019-05-11T21:20:12.375Z,19.47
2019-05-11T21:22:41.248Z,17.40
2019-05-11T21:25:10.462Z,19.07
2019-05-11T21:27:39.311Z,19.67
2019-05-11T21:30:09.911Z,18.93
2019-05-11T21:32:40.265Z,19.13
2019-05-11T21:35:09.559Z,19.93
2019-05-11T21:37:38.943Z,21.87
2019-05-11T21:40:08.997Z,22.47
2019-05-11T21:42:38.903Z,26.90
2019-05-11T21:45:10.421Z,32.37
2019-05-11T21:47:39.674Z,31.23
2019-05-11T21:50:09.998Z,27.00
2019-05-11T21:52:38.995Z,25.97
2019-05-11T21:55:09.793Z,25.60
2019-05-11T21:57:38.890Z,25.87
2019-05-11T22:00:11.778Z,26.00
2019-05-11T22:02:40.744Z,26.47
2019-05-11T22:05:10.267Z,26.47
2019-05-11T22:07:41.875Z,26.33
2019-05-11T22:10:10.420Z,26.90
2019-05-11T22:12:39.543Z,26.83
2019-05-11T22:15:09.816Z,26.50
2019-05-11T22:17:39.586Z,27.07
2019-05-11T22:20:09.317Z,26.53
2019-05-11T22:22:39.297Z,27.43
2019-05-11T22:25:09.457Z,28.27
2019-05-11T22:27:38.991Z,29.33
2019-05-11T22:30:10.246Z,28.57
2019-05-11T22:32:39.201Z,29.37
2019-05-11T22:35:09.506Z,29.60
2019-05-11T22:37:39.135Z,29.67
2019-05-11T22:40:09.134Z,29.50
2019-05-11T22:42:38.534Z,29.57
2019-05-11T22:45:08.714Z,30.17
2019-05-11T22:47:39.396Z,29.90
2019-05-11T22:50:09.520Z,32.17
2019-05-11T22:52:40.488Z,31.17
2019-05-11T22:55:11.923Z,32.33
2019-05-11T22:57:40.347Z,31.77
2019-05-11T23:00:11.224Z,32.27
2019-05-11T23:02:40.072Z,31.57
2019-05-11T23:05:10.196Z,31.10
2019-05-11T23:07:41.272Z,32.17
2019-05-11T23:10:10.945Z,32.10
2019-05-11T23:12:39.721Z,33.10
2019-05-11T23:15:15.683Z,32.57
2019-05-11T23:17:44.378Z,33.57
2019-05-11T23:20:13.511Z,32.80
2019-05-11T23:22:56.970Z,34.77
2019-05-11T23:25:19.169Z,34.93
2019-05-11T23:27:48.444Z,35.13
2019-05-11T23:30:20.232Z,35.57
2019-05-11T23:32:50.046Z,34.53
2019-05-11T23:35:19.309Z,35.47
2019-05-11T23:37:50.143Z,34.63
2019-05-11T23:40:19.954Z,35.03
2019-05-11T23:42:49.395Z,34.90
2019-05-11T23:45:19.265Z,35.90
2019-05-11T23:47:49.003Z,37.17
2019-05-11T23:50:19.093Z,35.03
2019-05-11T23:52:53.412Z,35.37
2019-05-11T23:55:19.519Z,35.27
2019-05-11T23:57:49.170Z,33.93
